sensor_id;sensor_type;location;lat;lon;timestamp;P1;durP1;ratioP1;P2;durP2;ratioP2
48327;SDS011;34136;51.022;7.082;2022-12-05T00:01:34;28.48;;;20.63;;
48327;SDS011;34136;51.022;7.082;2022-12-05T00:04:22;32.20;;;21.65;;
48327;SDS011;34136;51.022;7.082;2022-12-05T00:07:09;30.42;;;20.65;;
48327;SDS011;34136;51.022;7.082;2022-12-05T00:09:55;33.65;;;22.23;;
48327;SDS011;34136;51.022;7.082;2022-12-05T00:12:41;31.35;;;22.10;;
48327;SDS011;34136;51.022;7.082;2022-12-05T00:15:27;32.00;;;21.17;;
48327;SDS011;34136;51.022;7.082;2022-12-05T00:18:13;35.10;;;20.90;;
48327;SDS011;34136;51.022;7.082;2022-12-05T00:20:59;33.28;;;22.25;;
48327;SDS011;34136;51.022;7.082;2022-12-05T00:23:46;34.60;;;21.88;;
48327;SDS011;34136;51.022;7.082;2022-12-05T00:26:33;31.30;;;21.65;;
48327;SDS011;34136;51.022;7.082;2022-12-05T00:29:19;33.17;;;21.65;;
48327;SDS011;34136;51.022;7.082;2022-12-05T00:32:05;29.05;;;21.45;;
48327;SDS011;34136;51.022;7.082;2022-12-05T00:34:52;33.63;;;21.67;;
48327;SDS011;34136;51.022;7.082;2022-12-05T00:37:38;30.67;;;21.52;;
48327;SDS011;34136;51.022;7.082;2022-12-05T00:40:25;31.88;;;21.80;;
48327;SDS011;34136;51.022;7.082;2022-12-05T00:43:12;29.25;;;21.35;;
48327;SDS011;34136;51.022;7.082;2022-12-05T00:46:01;30.70;;;21.98;;
48327;SDS011;34136;51.022;7.082;2022-12-05T00:48:49;31.30;;;20.00;;
48327;SDS011;34136;51.022;7.082;2022-12-05T00:51:38;33.83;;;21.80;;
48327;SDS011;34136;51.022;7.082;2022-12-05T00:54:25;30.77;;;20.13;;
48327;SDS011;34136;51.022;7.082;2022-12-05T00:57:11;30.23;;;21.20;;
48327;SDS011;34136;51.022;7.082;2022-12-05T00:59:58;29.83;;;19.52;;
48327;SDS011;34136;51.022;7.082;2022-12-05T01:02:44;31.33;;;21.30;;
48327;SDS011;34136;51.022;7.082;2022-12-05T01:05:32;29.52;;;20.55;;
48327;SDS011;34136;51.022;7.082;2022-12-05T01:08:18;29.25;;;20.35;;
48327;SDS011;34136;51.022;7.082;2022-12-05T01:11:05;30.50;;;20.60;;
48327;SDS011;34136;51.022;7.082;2022-12-05T01:13:54;32.60;;;21.52;;
48327;SDS011;34136;51.022;7.082;2022-12-05T01:16:43;31.42;;;20.58;;
48327;SDS011;34136;51.022;7.082;2022-12-05T01:19:31;32.35;;;21.20;;
48327;SDS011;34136;51.022;7.082;2022-12-05T01:22:18;33.28;;;20.95;;
48327;SDS011;34136;51.022;7.082;2022-12-05T01:25:04;29.13;;;20.20;;
48327;SDS011;34136;51.022;7.082;2022-12-05T01:27:51;30.35;;;20.48;;
48327;SDS011;34136;51.022;7.082;2022-12-05T01:30:38;32.75;;;20.30;;
48327;SDS011;34136;51.022;7.082;2022-12-05T01:33:25;34.85;;;20.60;;
48327;SDS011;34136;51.022;7.082;2022-12-05T01:36:12;30.77;;;20.40;;
48327;SDS011;34136;51.022;7.082;2022-12-05T01:38:59;31.42;;;21.05;;
48327;SDS011;34136;51.022;7.082;2022-12-05T01:41:47;28.90;;;20.15;;
48327;SDS011;34136;51.022;7.082;2022-12-05T01:47:21;28.67;;;19.25;;
48327;SDS011;34136;51.022;7.082;2022-12-05T01:50:10;33.00;;;20.50;;
48327;SDS011;34136;51.022;7.082;2022-12-05T01:52:58;30.13;;;20.08;;
48327;SDS011;34136;51.022;7.082;2022-12-05T01:55:46;30.75;;;20.40;;
48327;SDS011;34136;51.022;7.082;2022-12-05T01:58:34;34.08;;;20.98;;
48327;SDS011;34136;51.022;7.082;2022-12-05T02:01:23;31.55;;;19.90;;
48327;SDS011;34136;51.022;7.082;2022-12-05T02:04:10;32.53;;;19.73;;
48327;SDS011;34136;51.022;7.082;2022-12-05T02:06:56;31.10;;;20.10;;
48327;SDS011;34136;51.022;7.082;2022-12-05T02:09:43;31.33;;;20.40;;
48327;SDS011;34136;51.022;7.082;2022-12-05T02:12:30;32.53;;;21.45;;
48327;SDS011;34136;51.022;7.082;2022-12-05T02:15:35;28.40;;;18.58;;
48327;SDS011;34136;51.022;7.082;2022-12-05T02:25:46;32.25;;;19.17;;
48327;SDS011;34136;51.022;7.082;2022-12-05T02:31:09;30.42;;;18.83;;
48327;SDS011;34136;51.022;7.082;2022-12-05T02:34:09;31.83;;;19.83;;
48327;SDS011;34136;51.022;7.082;2022-12-05T02:37:11;28.27;;;19.23;;
48327;SDS011;34136;51.022;7.082;2022-12-05T02:40:04;29.15;;;19.40;;
48327;SDS011;34136;51.022;7.082;2022-12-05T02:43:09;29.63;;;18.95;;
48327;SDS011;34136;51.022;7.082;2022-12-05T02:45:59;32.10;;;20.90;;
48327;SDS011;34136;51.022;7.082;2022-12-05T02:48:58;32.75;;;19.85;;
48327;SDS011;34136;51.022;7.082;2022-12-05T02:51:49;32.50;;;19.80;;
48327;SDS011;34136;51.022;7.082;2022-12-05T02:54:40;33.42;;;20.40;;
48327;SDS011;34136;51.022;7.082;2022-12-05T02:57:29;33.67;;;20.52;;
48327;SDS011;34136;51.022;7.082;2022-12-05T03:00:16;35.03;;;21.35;;
48327;SDS011;34136;51.022;7.082;2022-12-05T03:03:05;31.90;;;20.25;;
48327;SDS011;34136;51.022;7.082;2022-12-05T03:06:09;35.67;;;22.50;;
48327;SDS011;34136;51.022;7.082;2022-12-05T03:09:07;33.72;;;21.00;;
48327;SDS011;34136;51.022;7.082;2022-12-05T03:12:20;31.10;;;19.60;;
48327;SDS011;34136;51.022;7.082;2022-12-05T03:18:03;29.83;;;19.90;;
48327;SDS011;34136;51.022;7.082;2022-12-05T03:20:53;29.05;;;19.52;;
48327;SDS011;34136;51.022;7.082;2022-12-05T03:23:46;29.83;;;19.13;;
48327;SDS011;34136;51.022;7.082;2022-12-05T03:29:47;29.45;;;19.30;;
48327;SDS011;34136;51.022;7.082;2022-12-05T03:39:07;27.05;;;18.23;;
48327;SDS011;34136;51.022;7.082;2022-12-05T03:44:51;27.88;;;18.45;;
48327;SDS011;34136;51.022;7.082;2022-12-05T03:50:52;26.67;;;17.35;;
48327;SDS011;34136;51.022;7.082;2022-12-05T03:54:01;27.67;;;18.03;;
48327;SDS011;34136;51.022;7.082;2022-12-05T03:57:12;24.85;;;17.05;;
48327;SDS011;34136;51.022;7.082;2022-12-05T04:00:22;29.60;;;17.05;;
48327;SDS011;34136;51.022;7.082;2022-12-05T04:03:13;27.15;;;17.23;;
48327;SDS011;34136;51.022;7.082;2022-12-05T04:06:11;27.75;;;16.88;;
48327;SDS011;34136;51.022;7.082;2022-12-05T04:09:10;25.77;;;17.20;;
48327;SDS011;34136;51.022;7.082;2022-12-05T04:12:27;25.10;;;16.93;;
48327;SDS011;34136;51.022;7.082;2022-12-05T04:15:34;25.58;;;16.88;;
48327;SDS011;34136;51.022;7.082;2022-12-05T04:18:20;25.10;;;16.83;;
48327;SDS011;34136;51.022;7.082;2022-12-05T04:21:09;27.50;;;17.98;;
48327;SDS011;34136;51.022;7.082;2022-12-05T04:23:57;26.15;;;16.55;;
48327;SDS011;34136;51.022;7.082;2022-12-05T04:26:45;29.27;;;18.10;;
48327;SDS011;34136;51.022;7.082;2022-12-05T04:32:29;24.43;;;16.83;;
48327;SDS011;34136;51.022;7.082;2022-12-05T04:35:25;29.52;;;17.75;;
48327;SDS011;34136;51.022;7.082;2022-12-05T04:38:33;29.42;;;17.98;;
48327;SDS011;34136;51.022;7.082;2022-12-05T04:41:56;26.27;;;17.95;;
48327;SDS011;34136;51.022;7.082;2022-12-05T04:44:54;24.20;;;16.65;;
48327;SDS011;34136;51.022;7.082;2022-12-05T04:47:49;24.70;;;16.95;;
48327;SDS011;34136;51.022;7.082;2022-12-05T04:50:40;27.63;;;17.25;;
48327;SDS011;34136;51.022;7.082;2022-12-05T04:53:28;24.35;;;16.98;;
48327;SDS011;34136;51.022;7.082;2022-12-05T04:56:16;28.85;;;17.98;;
48327;SDS011;34136;51.022;7.082;2022-12-05T04:59:05;29.53;;;18.70;;
48327;SDS011;34136;51.022;7.082;2022-12-05T05:01:52;29.35;;;18.70;;
48327;SDS011;34136;51.022;7.082;2022-12-05T05:04:48;26.70;;;16.90;;
48327;SDS011;34136;51.022;7.082;2022-12-05T05:07:47;27.70;;;18.55;;
48327;SDS011;34136;51.022;7.082;2022-12-05T05:10:36;26.60;;;17.92;;
48327;SDS011;34136;51.022;7.082;2022-12-05T05:13:29;25.73;;;17.77;;
48327;SDS011;34136;51.022;7.082;2022-12-05T05:16:35;29.00;;;19.02;;
48327;SDS011;34136;51.022;7.082;2022-12-05T05:19:42;27.90;;;17.92;;
48327;SDS011;34136;51.022;7.082;2022-12-05T05:22:28;27.77;;;17.42;;
48327;SDS011;34136;51.022;7.082;2022-12-05T05:25:15;26.63;;;17.37;;
48327;SDS011;34136;51.022;7.082;2022-12-05T05:28:01;28.10;;;17.90;;
48327;SDS011;34136;51.022;7.082;2022-12-05T05:30:48;25.03;;;16.97;;
48327;SDS011;34136;51.022;7.082;2022-12-05T05:33:35;28.77;;;18.30;;
48327;SDS011;34136;51.022;7.082;2022-12-05T05:36:22;27.43;;;17.90;;
48327;SDS011;34136;51.022;7.082;2022-12-05T05:39:10;27.33;;;17.87;;
48327;SDS011;34136;51.022;7.082;2022-12-05T05:41:58;26.17;;;16.73;;
48327;SDS011;34136;51.022;7.082;2022-12-05T05:45:03;27.07;;;18.27;;
48327;SDS011;34136;51.022;7.082;2022-12-05T05:47:49;25.65;;;18.17;;
48327;SDS011;34136;51.022;7.082;2022-12-05T05:50:53;25.43;;;16.97;;
48327;SDS011;34136;51.022;7.082;2022-12-05T05:53:40;28.08;;;17.85;;
48327;SDS011;34136;51.022;7.082;2022-12-05T05:56:27;27.63;;;16.83;;
48327;SDS011;34136;51.022;7.082;2022-12-05T05:59:32;27.33;;;17.93;;
48327;SDS011;34136;51.022;7.082;2022-12-05T06:02:37;24.15;;;16.88;;
48327;SDS011;34136;51.022;7.082;2022-12-05T06:05:23;24.58;;;15.82;;
48327;SDS011;34136;51.022;7.082;2022-12-05T06:08:10;21.40;;;15.90;;
48327;SDS011;34136;51.022;7.082;2022-12-05T06:10:56;26.20;;;16.88;;
48327;SDS011;34136;51.022;7.082;2022-12-05T06:13:43;22.90;;;15.87;;
48327;SDS011;34136;51.022;7.082;2022-12-05T06:16:29;27.35;;;16.92;;
48327;SDS011;34136;51.022;7.082;2022-12-05T06:19:15;24.27;;;16.63;;
48327;SDS011;34136;51.022;7.082;2022-12-05T06:22:02;26.33;;;16.77;;
48327;SDS011;34136;51.022;7.082;2022-12-05T06:24:48;25.42;;;16.00;;
48327;SDS011;34136;51.022;7.082;2022-12-05T06:27:35;22.33;;;16.03;;
48327;SDS011;34136;51.022;7.082;2022-12-05T06:30:21;27.20;;;17.17;;
48327;SDS011;34136;51.022;7.082;2022-12-05T06:33:07;25.50;;;16.50;;
48327;SDS011;34136;51.022;7.082;2022-12-05T06:36:00;27.10;;;18.40;;
48327;SDS011;34136;51.022;7.082;2022-12-05T06:38:48;27.63;;;18.60;;
48327;SDS011;34136;51.022;7.082;2022-12-05T06:41:34;26.75;;;16.52;;
48327;SDS011;34136;51.022;7.082;2022-12-05T06:44:20;27.43;;;17.53;;
48327;SDS011;34136;51.022;7.082;2022-12-05T06:47:25;25.13;;;16.13;;
48327;SDS011;34136;51.022;7.082;2022-12-05T06:50:11;25.40;;;16.50;;
48327;SDS011;34136;51.022;7.082;2022-12-05T06:52:57;23.53;;;16.23;;
48327;SDS011;34136;51.022;7.082;2022-12-05T06:55:44;24.40;;;16.73;;
48327;SDS011;34136;51.022;7.082;2022-12-05T06:58:49;24.43;;;16.43;;
48327;SDS011;34136;51.022;7.082;2022-12-05T07:01:36;26.40;;;17.00;;
48327;SDS011;34136;51.022;7.082;2022-12-05T07:04:22;25.53;;;16.70;;
48327;SDS011;34136;51.022;7.082;2022-12-05T07:07:09;24.43;;;17.10;;
48327;SDS011;34136;51.022;7.082;2022-12-05T07:09:55;24.50;;;16.17;;
48327;SDS011;34136;51.022;7.082;2022-12-05T07:12:41;25.00;;;16.30;;
48327;SDS011;34136;51.022;7.082;2022-12-05T07:15:27;24.53;;;16.30;;
48327;SDS011;34136;51.022;7.082;2022-12-05T07:18:14;29.57;;;18.50;;
48327;SDS011;34136;51.022;7.082;2022-12-05T07:21:03;26.13;;;18.30;;
48327;SDS011;34136;51.022;7.082;2022-12-05T07:24:10;24.87;;;16.93;;
48327;SDS011;34136;51.022;7.082;2022-12-05T07:26:56;25.97;;;17.13;;
48327;SDS011;34136;51.022;7.082;2022-12-05T07:29:42;23.27;;;16.83;;
48327;SDS011;34136;51.022;7.082;2022-12-05T07:32:30;25.23;;;16.57;;
48327;SDS011;34136;51.022;7.082;2022-12-05T07:35:17;24.30;;;16.60;;
48327;SDS011;34136;51.022;7.082;2022-12-05T07:38:04;28.07;;;17.67;;
48327;SDS011;34136;51.022;7.082;2022-12-05T07:40:50;24.77;;;16.90;;
48327;SDS011;34136;51.022;7.082;2022-12-05T07:43:36;20.43;;;15.53;;
48327;SDS011;34136;51.022;7.082;2022-12-05T07:46:23;22.97;;;16.30;;
48327;SDS011;34136;51.022;7.082;2022-12-05T07:49:10;24.37;;;16.47;;
48327;SDS011;34136;51.022;7.082;2022-12-05T07:51:56;23.53;;;16.60;;
48327;SDS011;34136;51.022;7.082;2022-12-05T07:54:42;26.98;;;16.83;;
48327;SDS011;34136;51.022;7.082;2022-12-05T07:57:29;25.53;;;17.33;;
48327;SDS011;34136;51.022;7.082;2022-12-05T08:00:15;24.70;;;17.13;;
48327;SDS011;34136;51.022;7.082;2022-12-05T08:03:21;23.97;;;16.40;;
48327;SDS011;34136;51.022;7.082;2022-12-05T08:06:08;23.40;;;15.97;;
48327;SDS011;34136;51.022;7.082;2022-12-05T08:08:59;22.75;;;16.30;;
48327;SDS011;34136;51.022;7.082;2022-12-05T08:11:45;24.60;;;16.53;;
48327;SDS011;34136;51.022;7.082;2022-12-05T08:14:31;22.23;;;16.30;;
48327;SDS011;34136;51.022;7.082;2022-12-05T08:17:17;25.03;;;17.47;;
48327;SDS011;34136;51.022;7.082;2022-12-05T08:20:03;24.03;;;17.93;;
48327;SDS011;34136;51.022;7.082;2022-12-05T08:22:51;21.63;;;16.23;;
48327;SDS011;34136;51.022;7.082;2022-12-05T08:25:37;24.20;;;17.07;;
48327;SDS011;34136;51.022;7.082;2022-12-05T08:28:23;23.33;;;17.13;;
48327;SDS011;34136;51.022;7.082;2022-12-05T08:31:13;23.93;;;17.57;;
48327;SDS011;34136;51.022;7.082;2022-12-05T08:34:01;22.38;;;15.98;;
48327;SDS011;34136;51.022;7.082;2022-12-05T08:36:47;20.40;;;15.60;;
48327;SDS011;34136;51.022;7.082;2022-12-05T08:39:33;25.90;;;16.88;;
48327;SDS011;34136;51.022;7.082;2022-12-05T08:42:19;22.95;;;16.98;;
48327;SDS011;34136;51.022;7.082;2022-12-05T08:45:06;23.90;;;16.13;;
48327;SDS011;34136;51.022;7.082;2022-12-05T08:47:53;22.97;;;16.43;;
48327;SDS011;34136;51.022;7.082;2022-12-05T08:50:40;21.98;;;16.08;;
48327;SDS011;34136;51.022;7.082;2022-12-05T08:53:26;23.20;;;16.53;;
48327;SDS011;34136;51.022;7.082;2022-12-05T08:56:12;21.73;;;15.57;;
48327;SDS011;34136;51.022;7.082;2022-12-05T08:58:58;19.83;;;15.00;;
48327;SDS011;34136;51.022;7.082;2022-12-05T09:01:47;19.73;;;15.57;;
48327;SDS011;34136;51.022;7.082;2022-12-05T09:04:34;20.23;;;15.27;;
48327;SDS011;34136;51.022;7.082;2022-12-05T09:07:20;21.33;;;15.83;;
48327;SDS011;34136;51.022;7.082;2022-12-05T09:10:07;22.87;;;16.03;;
48327;SDS011;34136;51.022;7.082;2022-12-05T09:12:53;20.97;;;15.70;;
48327;SDS011;34136;51.022;7.082;2022-12-05T09:15:40;24.77;;;17.47;;
48327;SDS011;34136;51.022;7.082;2022-12-05T09:18:26;21.87;;;16.20;;
48327;SDS011;34136;51.022;7.082;2022-12-05T09:21:16;22.70;;;16.90;;
48327;SDS011;34136;51.022;7.082;2022-12-05T09:24:04;23.02;;;16.70;;
48327;SDS011;34136;51.022;7.082;2022-12-05T09:26:50;21.67;;;15.37;;
48327;SDS011;34136;51.022;7.082;2022-12-05T09:29:36;21.77;;;16.13;;
48327;SDS011;34136;51.022;7.082;2022-12-05T09:32:22;20.75;;;15.32;;
48327;SDS011;34136;51.022;7.082;2022-12-05T09:35:08;19.23;;;15.10;;
48327;SDS011;34136;51.022;7.082;2022-12-05T09:37:55;20.27;;;16.33;;
48327;SDS011;34136;51.022;7.082;2022-12-05T09:40:41;20.13;;;15.20;;
48327;SDS011;34136;51.022;7.082;2022-12-05T09:43:36;22.53;;;15.50;;
48327;SDS011;34136;51.022;7.082;2022-12-05T09:49:41;19.53;;;14.63;;
48327;SDS011;34136;51.022;7.082;2022-12-05T09:52:36;19.67;;;14.40;;
48327;SDS011;34136;51.022;7.082;2022-12-05T09:55:50;17.92;;;14.27;;
48327;SDS011;34136;51.022;7.082;2022-12-05T10:04:48;18.38;;;14.82;;
48327;SDS011;34136;51.022;7.082;2022-12-05T10:08:18;20.00;;;15.05;;
48327;SDS011;34136;51.022;7.082;2022-12-05T10:11:17;18.83;;;15.27;;
48327;SDS011;34136;51.022;7.082;2022-12-05T10:17:15;20.33;;;15.50;;
48327;SDS011;34136;51.022;7.082;2022-12-05T10:20:12;21.63;;;15.90;;
48327;SDS011;34136;51.022;7.082;2022-12-05T10:23:04;25.45;;;16.52;;
48327;SDS011;34136;51.022;7.082;2022-12-05T10:26:15;20.30;;;15.37;;
48327;SDS011;34136;51.022;7.082;2022-12-05T10:29:11;19.03;;;15.10;;
48327;SDS011;34136;51.022;7.082;2022-12-05T10:35:32;20.10;;;15.73;;
48327;SDS011;34136;51.022;7.082;2022-12-05T10:38:27;20.63;;;16.02;;
48327;SDS011;34136;51.022;7.082;2022-12-05T10:41:14;24.80;;;16.77;;
48327;SDS011;34136;51.022;7.082;2022-12-05T10:44:01;22.92;;;17.35;;
48327;SDS011;34136;51.022;7.082;2022-12-05T10:47:08;21.57;;;17.07;;
48327;SDS011;34136;51.022;7.082;2022-12-05T10:53:17;25.15;;;18.15;;
48327;SDS011;34136;51.022;7.082;2022-12-05T10:59:24;25.35;;;19.25;;
48327;SDS011;34136;51.022;7.082;2022-12-05T11:02:29;27.80;;;17.20;;
48327;SDS011;34136;51.022;7.082;2022-12-05T11:05:26;24.77;;;18.90;;
48327;SDS011;34136;51.022;7.082;2022-12-05T11:08:20;21.60;;;17.25;;
48327;SDS011;34136;51.022;7.082;2022-12-05T11:11:22;32.22;;;19.38;;
48327;SDS011;34136;51.022;7.082;2022-12-05T11:14:22;25.33;;;18.77;;
48327;SDS011;34136;51.022;7.082;2022-12-05T11:17:10;23.27;;;18.23;;
48327;SDS011;34136;51.022;7.082;2022-12-05T11:23:14;21.98;;;17.50;;
48327;SDS011;34136;51.022;7.082;2022-12-05T11:26:17;21.83;;;16.88;;
48327;SDS011;34136;51.022;7.082;2022-12-05T11:29:38;24.77;;;17.45;;
48327;SDS011;34136;51.022;7.082;2022-12-05T11:32:25;24.02;;;18.05;;
48327;SDS011;34136;51.022;7.082;2022-12-05T11:35:17;27.55;;;18.38;;
48327;SDS011;34136;51.022;7.082;2022-12-05T11:38:10;25.95;;;18.38;;
48327;SDS011;34136;51.022;7.082;2022-12-05T11:47:46;27.85;;;19.92;;
48327;SDS011;34136;51.022;7.082;2022-12-05T11:53:24;30.80;;;21.80;;
48327;SDS011;34136;51.022;7.082;2022-12-05T11:56:53;28.27;;;20.57;;
48327;SDS011;34136;51.022;7.082;2022-12-05T12:03:22;29.20;;;21.73;;
48327;SDS011;34136;51.022;7.082;2022-12-05T12:12:47;29.92;;;21.35;;
48327;SDS011;34136;51.022;7.082;2022-12-05T12:37:25;25.85;;;20.20;;
48327;SDS011;34136;51.022;7.082;2022-12-05T12:46:45;29.02;;;22.13;;
48327;SDS011;34136;51.022;7.082;2022-12-05T12:59:13;27.98;;;21.15;;
48327;SDS011;34136;51.022;7.082;2022-12-05T13:05:23;30.45;;;23.08;;
48327;SDS011;34136;51.022;7.082;2022-12-05T13:11:07;29.15;;;21.73;;
48327;SDS011;34136;51.022;7.082;2022-12-05T13:13:56;31.23;;;25.20;;
48327;SDS011;34136;51.022;7.082;2022-12-05T13:16:46;31.52;;;25.05;;
48327;SDS011;34136;51.022;7.082;2022-12-05T13:19:40;33.90;;;27.88;;
48327;SDS011;34136;51.022;7.082;2022-12-05T13:22:29;34.90;;;28.10;;
48327;SDS011;34136;51.022;7.082;2022-12-05T13:25:16;35.33;;;28.15;;
48327;SDS011;34136;51.022;7.082;2022-12-05T13:28:08;40.05;;;30.88;;
48327;SDS011;34136;51.022;7.082;2022-12-05T13:31:08;41.50;;;33.10;;
48327;SDS011;34136;51.022;7.082;2022-12-05T13:33:56;40.90;;;31.20;;
48327;SDS011;34136;51.022;7.082;2022-12-05T13:36:42;38.63;;;29.35;;
48327;SDS011;34136;51.022;7.082;2022-12-05T13:39:29;33.03;;;26.23;;
48327;SDS011;34136;51.022;7.082;2022-12-05T13:42:19;32.88;;;26.10;;
48327;SDS011;34136;51.022;7.082;2022-12-05T13:49:03;31.88;;;24.58;;
48327;SDS011;34136;51.022;7.082;2022-12-05T13:51:52;25.73;;;21.55;;
48327;SDS011;34136;51.022;7.082;2022-12-05T13:55:13;24.58;;;20.73;;
48327;SDS011;34136;51.022;7.082;2022-12-05T14:04:40;26.30;;;20.10;;
48327;SDS011;34136;51.022;7.082;2022-12-05T14:07:35;26.10;;;22.20;;
48327;SDS011;34136;51.022;7.082;2022-12-05T14:22:44;22.60;;;18.60;;
48327;SDS011;34136;51.022;7.082;2022-12-05T14:25:57;22.15;;;18.15;;
48327;SDS011;34136;51.022;7.082;2022-12-05T14:37:53;24.45;;;19.52;;
48327;SDS011;34136;51.022;7.082;2022-12-05T14:40:42;20.85;;;18.02;;
48327;SDS011;34136;51.022;7.082;2022-12-05T14:43:30;20.17;;;17.33;;
48327;SDS011;34136;51.022;7.082;2022-12-05T14:46:23;21.15;;;17.77;;
48327;SDS011;34136;51.022;7.082;2022-12-05T14:52:23;22.55;;;18.90;;
48327;SDS011;34136;51.022;7.082;2022-12-05T14:55:12;23.45;;;17.13;;
48327;SDS011;34136;51.022;7.082;2022-12-05T14:58:01;20.20;;;18.05;;
48327;SDS011;34136;51.022;7.082;2022-12-05T15:00:54;18.65;;;15.85;;
48327;SDS011;34136;51.022;7.082;2022-12-05T15:06:52;20.73;;;18.13;;
48327;SDS011;34136;51.022;7.082;2022-12-05T15:12:40;22.85;;;20.25;;
48327;SDS011;34136;51.022;7.082;2022-12-05T15:18:26;28.98;;;22.90;;
48327;SDS011;34136;51.022;7.082;2022-12-05T15:24:16;24.67;;;20.45;;
48327;SDS011;34136;51.022;7.082;2022-12-05T15:27:04;28.00;;;21.70;;
48327;SDS011;34136;51.022;7.082;2022-12-05T15:29:54;26.25;;;22.98;;
48327;SDS011;34136;51.022;7.082;2022-12-05T15:32:40;26.00;;;21.15;;
48327;SDS011;34136;51.022;7.082;2022-12-05T15:35:30;27.55;;;21.65;;
48327;SDS011;34136;51.022;7.082;2022-12-05T15:50:05;20.98;;;16.98;;
48327;SDS011;34136;51.022;7.082;2022-12-05T15:55:55;20.27;;;16.88;;
48327;SDS011;34136;51.022;7.082;2022-12-05T15:59:17;20.05;;;15.85;;
48327;SDS011;34136;51.022;7.082;2022-12-05T16:02:13;18.55;;;15.30;;
48327;SDS011;34136;51.022;7.082;2022-12-05T16:05:56;17.55;;;15.23;;
48327;SDS011;34136;51.022;7.082;2022-12-05T16:08:48;17.88;;;14.15;;
48327;SDS011;34136;51.022;7.082;2022-12-05T16:11:55;17.77;;;14.68;;
48327;SDS011;34136;51.022;7.082;2022-12-05T16:14:44;22.50;;;16.50;;
48327;SDS011;34136;51.022;7.082;2022-12-05T16:21:30;19.92;;;15.50;;
48327;SDS011;34136;51.022;7.082;2022-12-05T16:24:26;18.25;;;14.63;;
48327;SDS011;34136;51.022;7.082;2022-12-05T16:27:14;19.25;;;15.32;;
48327;SDS011;34136;51.022;7.082;2022-12-05T16:30:15;16.25;;;14.55;;
48327;SDS011;34136;51.022;7.082;2022-12-05T16:33:15;19.05;;;15.38;;
48327;SDS011;34136;51.022;7.082;2022-12-05T16:36:08;19.40;;;15.13;;
48327;SDS011;34136;51.022;7.082;2022-12-05T16:42:46;19.10;;;14.77;;
48327;SDS011;34136;51.022;7.082;2022-12-05T16:45:46;17.40;;;14.60;;
48327;SDS011;34136;51.022;7.082;2022-12-05T16:57:40;15.88;;;14.15;;
48327;SDS011;34136;51.022;7.082;2022-12-05T17:00:26;18.60;;;16.13;;
48327;SDS011;34136;51.022;7.082;2022-12-05T17:03:12;16.95;;;15.13;;
48327;SDS011;34136;51.022;7.082;2022-12-05T17:05:59;19.50;;;17.25;;
48327;SDS011;34136;51.022;7.082;2022-12-05T17:08:45;19.88;;;17.20;;
48327;SDS011;34136;51.022;7.082;2022-12-05T17:11:32;18.58;;;16.30;;
48327;SDS011;34136;51.022;7.082;2022-12-05T17:14:19;18.95;;;15.60;;
48327;SDS011;34136;51.022;7.082;2022-12-05T17:17:12;19.83;;;16.77;;
48327;SDS011;34136;51.022;7.082;2022-12-05T17:19:59;19.20;;;16.13;;
48327;SDS011;34136;51.022;7.082;2022-12-05T17:22:44;22.43;;;17.50;;
48327;SDS011;34136;51.022;7.082;2022-12-05T18:00:43;19.70;;;17.08;;
48327;SDS011;34136;51.022;7.082;2022-12-05T18:23:07;23.38;;;18.23;;
48327;SDS011;34136;51.022;7.082;2022-12-05T18:42:17;28.93;;;21.30;;
48327;SDS011;34136;51.022;7.082;2022-12-05T19:26:22;26.05;;;20.33;;
48327;SDS011;34136;51.022;7.082;2022-12-05T19:29:11;25.33;;;19.65;;
48327;SDS011;34136;51.022;7.082;2022-12-05T19:31:59;23.70;;;19.57;;
48327;SDS011;34136;51.022;7.082;2022-12-05T19:34:45;24.73;;;19.90;;
48327;SDS011;34136;51.022;7.082;2022-12-05T19:37:31;22.37;;;18.37;;
48327;SDS011;34136;51.022;7.082;2022-12-05T19:40:17;22.80;;;19.50;;
48327;SDS011;34136;51.022;7.082;2022-12-05T19:43:03;23.40;;;19.87;;
48327;SDS011;34136;51.022;7.082;2022-12-05T19:45:49;24.53;;;20.33;;
48327;SDS011;34136;51.022;7.082;2022-12-05T19:48:35;28.03;;;20.50;;
48327;SDS011;34136;51.022;7.082;2022-12-05T19:51:22;27.00;;;20.73;;
48327;SDS011;34136;51.022;7.082;2022-12-05T19:54:09;24.27;;;20.27;;
48327;SDS011;34136;51.022;7.082;2022-12-05T19:56:57;23.80;;;19.67;;
48327;SDS011;34136;51.022;7.082;2022-12-05T19:59:44;25.53;;;21.40;;
48327;SDS011;34136;51.022;7.082;2022-12-05T20:02:31;30.77;;;22.77;;
48327;SDS011;34136;51.022;7.082;2022-12-05T20:05:17;24.58;;;21.23;;
48327;SDS011;34136;51.022;7.082;2022-12-05T20:08:04;24.90;;;21.10;;
48327;SDS011;34136;51.022;7.082;2022-12-05T20:10:53;22.43;;;19.00;;
48327;SDS011;34136;51.022;7.082;2022-12-05T20:13:40;22.55;;;18.58;;
48327;SDS011;34136;51.022;7.082;2022-12-05T20:16:27;21.87;;;18.27;;
48327;SDS011;34136;51.022;7.082;2022-12-05T20:19:14;21.98;;;19.13;;
48327;SDS011;34136;51.022;7.082;2022-12-05T20:22:00;22.65;;;17.23;;
48327;SDS011;34136;51.022;7.082;2022-12-05T20:24:46;21.80;;;18.10;;
48327;SDS011;34136;51.022;7.082;2022-12-05T20:27:33;21.40;;;18.07;;
48327;SDS011;34136;51.022;7.082;2022-12-05T20:30:19;22.25;;;19.00;;
48327;SDS011;34136;51.022;7.082;2022-12-05T20:33:05;25.00;;;20.47;;
48327;SDS011;34136;51.022;7.082;2022-12-05T20:35:51;22.60;;;18.50;;
48327;SDS011;34136;51.022;7.082;2022-12-05T20:38:38;24.07;;;19.20;;
48327;SDS011;34136;51.022;7.082;2022-12-05T20:41:24;22.47;;;17.70;;
48327;SDS011;34136;51.022;7.082;2022-12-05T20:44:13;23.13;;;19.57;;
48327;SDS011;34136;51.022;7.082;2022-12-05T20:46:59;22.27;;;17.23;;
48327;SDS011;34136;51.022;7.082;2022-12-05T20:50:04;21.40;;;17.73;;
48327;SDS011;34136;51.022;7.082;2022-12-05T20:52:51;21.37;;;17.50;;
48327;SDS011;34136;51.022;7.082;2022-12-05T20:56:00;24.67;;;16.90;;
48327;SDS011;34136;51.022;7.082;2022-12-05T20:59:07;24.17;;;18.57;;
48327;SDS011;34136;51.022;7.082;2022-12-05T21:01:55;26.98;;;18.48;;
48327;SDS011;34136;51.022;7.082;2022-12-05T21:04:41;24.80;;;19.48;;
48327;SDS011;34136;51.022;7.082;2022-12-05T21:07:27;20.98;;;17.60;;
48327;SDS011;34136;51.022;7.082;2022-12-05T21:10:14;26.50;;;21.13;;
48327;SDS011;34136;51.022;7.082;2022-12-05T21:13:19;25.15;;;19.08;;
48327;SDS011;34136;51.022;7.082;2022-12-05T21:16:07;22.38;;;17.63;;
48327;SDS011;34136;51.022;7.082;2022-12-05T21:18:58;19.45;;;16.25;;
48327;SDS011;34136;51.022;7.082;2022-12-05T21:21:45;21.90;;;18.13;;
48327;SDS011;34136;51.022;7.082;2022-12-05T21:24:31;20.57;;;17.43;;
48327;SDS011;34136;51.022;7.082;2022-12-05T21:27:18;24.80;;;18.98;;
48327;SDS011;34136;51.022;7.082;2022-12-05T21:30:04;21.50;;;17.02;;
48327;SDS011;34136;51.022;7.082;2022-12-05T21:32:51;21.83;;;17.88;;
48327;SDS011;34136;51.022;7.082;2022-12-05T21:35:39;20.73;;;16.83;;
48327;SDS011;34136;51.022;7.082;2022-12-05T21:38:25;19.58;;;16.48;;
48327;SDS011;34136;51.022;7.082;2022-12-05T21:41:11;20.27;;;16.23;;
48327;SDS011;34136;51.022;7.082;2022-12-05T21:43:58;19.27;;;16.80;;
48327;SDS011;34136;51.022;7.082;2022-12-05T21:46:44;20.33;;;17.43;;
48327;SDS011;34136;51.022;7.082;2022-12-05T21:49:31;20.40;;;16.80;;
48327;SDS011;34136;51.022;7.082;2022-12-05T21:52:17;20.53;;;15.53;;
48327;SDS011;34136;51.022;7.082;2022-12-05T21:55:07;21.47;;;16.43;;